createdAt,value
2023-03-15T00:04:50.191Z,1.53
2023-03-15T00:09:55.980Z,1.93
2023-03-15T00:15:01.351Z,3.80
2023-03-15T00:20:07.947Z,1.53
2023-03-15T00:25:13.436Z,3.37
2023-03-15T00:30:20.104Z,1.37
2023-03-15T00:35:25.878Z,2.30
2023-03-15T00:40:31.749Z,1.83
2023-03-15T00:45:37.427Z,1.03
2023-03-15T00:50:42.621Z,1.73
2023-03-15T00:55:47.842Z,4.73
2023-03-15T01:00:54.686Z,2.03
2023-03-15T01:05:59.805Z,4.97
2023-03-15T01:11:10.602Z,2.53
2023-03-15T01:16:16.053Z,2.67
2023-03-15T01:21:23.485Z,1.83
2023-03-15T01:26:28.675Z,4.20
2023-03-15T01:31:34.078Z,2.07
2023-03-15T01:36:39.363Z,1.90
2023-03-15T01:41:44.841Z,1.53
2023-03-15T01:46:51.274Z,1.43
2023-03-15T01:52:05.179Z,1.53
2023-03-15T01:57:23.153Z,6.53
2023-03-15T02:02:29.051Z,1.87
2023-03-15T02:07:34.870Z,9.00
2023-03-15T02:12:49.431Z,2.73
2023-03-15T02:17:54.641Z,5.87
2023-03-15T02:23:08.874Z,1.43
2023-03-15T02:28:18.268Z,7.43
2023-03-15T02:33:29.770Z,4.63
2023-03-15T02:38:34.990Z,4.13
2023-03-15T02:43:42.341Z,1.10
2023-03-15T02:48:49.457Z,1.00
2023-03-15T02:53:54.806Z,21.33
2023-03-15T02:59:01.564Z,4.93
2023-03-15T03:04:07.411Z,3.03
2023-03-15T03:09:13.638Z,9.47
2023-03-15T03:14:18.940Z,7.50
2023-03-15T03:19:26.912Z,6.03
2023-03-15T03:24:34.245Z,2.40
2023-03-15T03:29:39.433Z,0.87
2023-03-15T03:34:46.286Z,1.23
2023-03-15T03:39:51.483Z,1.17
2023-03-15T03:44:56.704Z,7.07
2023-03-15T03:50:02.243Z,0.90
2023-03-15T03:55:07.875Z,8.93
2023-03-15T04:00:16.628Z,2.20
2023-03-15T04:05:22.206Z,14.03
2023-03-15T04:10:27.660Z,13.17
2023-03-15T04:15:32.992Z,3.57
2023-03-15T04:20:38.282Z,1.30
2023-03-15T04:25:43.737Z,11.13
2023-03-15T04:30:50.893Z,2.00
2023-03-15T04:35:57.886Z,3.30
2023-03-15T04:41:04.821Z,5.47
2023-03-15T04:46:10.776Z,0.70
2023-03-15T04:51:16.236Z,0.87
2023-03-15T04:56:21.509Z,17.83
2023-03-15T05:01:32.283Z,6.80
2023-03-15T05:06:37.601Z,12.10
2023-03-15T05:11:42.832Z,2.40
2023-03-15T05:16:49.447Z,2.00
2023-03-15T05:21:57.612Z,2.77
2023-03-15T05:27:05.690Z,0.70
2023-03-15T05:32:11.170Z,5.70
2023-03-15T05:37:16.334Z,3.10
2023-03-15T05:42:23.158Z,0.80
2023-03-15T05:47:28.456Z,3.13
2023-03-15T05:52:33.884Z,3.30
2023-03-15T05:57:39.236Z,1.37
2023-03-15T06:02:46.392Z,7.93
2023-03-15T06:07:51.727Z,11.07
2023-03-15T06:12:57.037Z,10.93
2023-03-15T06:18:02.290Z,8.93
2023-03-15T06:23:07.876Z,14.17
2023-03-15T06:28:13.191Z,13.17
2023-03-15T06:33:18.557Z,5.50
2023-03-15T06:38:24.414Z,10.13
2023-03-15T06:43:30.188Z,16.63
2023-03-15T06:48:35.498Z,2.30
2023-03-15T06:53:40.807Z,2.97
2023-03-15T06:58:46.157Z,1.67
2023-03-15T07:03:51.383Z,2.53
2023-03-15T07:08:56.935Z,1.70
2023-03-15T07:14:02.324Z,2.53
2023-03-15T07:19:07.549Z,1.23
2023-03-15T07:24:12.754Z,12.67
2023-03-15T07:29:18.745Z,1.57
2023-03-15T07:34:23.968Z,8.43
2023-03-15T07:39:31.239Z,3.43
2023-03-15T07:44:36.467Z,5.53
2023-03-15T07:49:41.741Z,4.17
2023-03-15T07:54:47.339Z,1.17
2023-03-15T07:59:53.783Z,1.43
2023-03-15T08:04:59.169Z,4.27
2023-03-15T08:10:06.493Z,1.87
2023-03-15T08:15:13.245Z,2.03
2023-03-15T08:20:20.140Z,5.33
2023-03-15T08:25:26.313Z,4.33
2023-03-15T08:30:31.384Z,1.87
2023-03-15T08:35:36.762Z,3.97
2023-03-15T08:40:42.972Z,7.87
2023-03-15T08:46:00.769Z,12.60
2023-03-15T08:51:05.680Z,5.73
2023-03-15T08:56:11.108Z,3.93
2023-03-15T09:01:22.339Z,9.53
2023-03-15T09:06:27.876Z,6.57
2023-03-15T09:11:33.188Z,1.77
2023-03-15T09:16:38.433Z,4.63
2023-03-15T09:22:10.977Z,9.47
2023-03-15T09:27:06.530Z,3.73
2023-03-15T09:32:11.919Z,4.30
2023-03-15T09:37:17.230Z,10.03
2023-03-15T09:42:31.800Z,15.50
2023-03-15T09:47:42.807Z,3.40
2023-03-15T09:52:53.659Z,8.73
2023-03-15T09:58:02.999Z,7.00
2023-03-15T10:03:10.371Z,4.73
2023-03-15T10:08:18.284Z,6.27
2023-03-15T10:13:32.407Z,4.07
2023-03-15T10:18:55.428Z,7.87
2023-03-15T10:24:01.722Z,2.00
2023-03-15T10:29:10.247Z,2.37
2023-03-15T10:34:17.133Z,5.80
2023-03-15T10:39:24.002Z,3.97
2023-03-15T10:44:29.463Z,2.27
2023-03-15T10:49:40.141Z,1.33
2023-03-15T10:54:46.447Z,4.73
2023-03-15T11:00:06.062Z,10.33
2023-03-15T11:05:14.296Z,4.13
2023-03-15T11:10:25.529Z,2.57
2023-03-15T11:15:30.826Z,6.17
2023-03-15T11:20:41.073Z,11.67
2023-03-15T11:25:47.213Z,10.70
2023-03-15T11:30:53.768Z,2.43
2023-03-15T11:36:01.666Z,4.27
2023-03-15T11:41:28.124Z,4.47
2023-03-15T11:46:43.091Z,7.10
2023-03-15T11:51:48.449Z,1.53
2023-03-15T11:56:56.392Z,4.87
2023-03-15T12:02:14.278Z,2.40
2023-03-15T12:07:24.755Z,5.33
2023-03-15T12:12:32.947Z,4.37
2023-03-15T12:17:58.187Z,8.90
2023-03-15T12:23:21.502Z,2.87
2023-03-15T12:28:41.532Z,4.90
2023-03-15T12:33:53.149Z,7.07
2023-03-15T12:39:04.482Z,4.03
2023-03-15T12:44:35.215Z,7.07
2023-03-15T12:49:46.293Z,6.00
2023-03-15T12:55:06.577Z,4.47
2023-03-15T13:00:17.723Z,4.40
2023-03-15T13:05:38.125Z,5.10
2023-03-15T13:11:05.749Z,5.37
2023-03-15T13:16:22.822Z,3.27
2023-03-15T13:21:40.001Z,7.50
2023-03-15T13:26:48.179Z,19.23
2023-03-15T13:32:14.574Z,7.93
2023-03-15T13:37:29.909Z,27.20
2023-03-15T13:42:36.522Z,7.40
2023-03-15T13:47:44.840Z,11.63
2023-03-15T13:52:50.720Z,4.77
2023-03-15T13:57:58.529Z,9.27
2023-03-15T14:03:09.054Z,13.87
2023-03-15T14:08:32.732Z,3.57
2023-03-15T14:13:56.980Z,9.50
2023-03-15T14:19:17.426Z,8.73
2023-03-15T14:24:41.154Z,20.83
2023-03-15T14:29:55.430Z,18.57
2023-03-15T14:35:10.020Z,16.63
2023-03-15T14:40:23.932Z,10.17
2023-03-15T14:45:29.963Z,8.67
2023-03-15T14:50:39.003Z,62.50
2023-03-15T14:55:44.306Z,35.57
2023-03-15T15:00:53.525Z,27.13
2023-03-15T15:05:59.926Z,15.10
2023-03-15T15:11:05.450Z,11.93
2023-03-15T15:16:11.336Z,21.50
2023-03-15T15:21:22.168Z,9.43
2023-03-15T15:26:29.945Z,14.33
2023-03-15T15:31:35.318Z,37.47
2023-03-15T15:36:45.287Z,9.97
2023-03-15T15:41:51.591Z,5.30
2023-03-15T15:46:57.842Z,49.33
2023-03-15T15:52:04.555Z,8.93
2023-03-15T15:57:11.543Z,10.07
2023-03-15T16:02:19.421Z,19.20
2023-03-15T16:07:25.821Z,8.30
2023-03-15T16:12:32.994Z,7.13
2023-03-15T16:17:38.156Z,1.87
2023-03-15T16:22:49.376Z,8.70
2023-03-15T16:27:56.980Z,10.97
2023-03-15T16:33:02.316Z,16.93
2023-03-15T16:38:09.541Z,23.20
2023-03-15T16:43:15.064Z,20.57
2023-03-15T16:48:21.831Z,29.67
2023-03-15T16:53:26.959Z,5.63
2023-03-15T16:58:33.574Z,23.20
2023-03-15T17:03:38.988Z,20.97
2023-03-15T17:08:44.263Z,24.90
2023-03-15T17:13:49.584Z,34.00
2023-03-15T17:18:54.705Z,14.33
2023-03-15T17:24:00.152Z,16.67
2023-03-15T17:29:06.110Z,42.50
2023-03-15T17:34:11.607Z,62.13
2023-03-15T17:39:17.818Z,19.83
2023-03-15T17:44:23.625Z,7.87
2023-03-15T17:49:28.881Z,57.47
2023-03-15T17:54:35.108Z,24.40
2023-03-15T17:59:41.136Z,17.00
2023-03-15T18:04:46.415Z,11.83
2023-03-15T18:09:51.592Z,7.13
2023-03-15T18:14:57.301Z,19.60
2023-03-15T18:20:02.484Z,13.13
2023-03-15T18:25:09.317Z,3.63
2023-03-15T18:30:16.848Z,18.13
2023-03-15T18:35:25.462Z,12.87
2023-03-15T18:40:32.998Z,20.30
2023-03-15T18:45:38.212Z,33.60
2023-03-15T18:50:46.633Z,50.17
2023-03-15T18:55:52.396Z,55.47
2023-03-15T19:00:58.255Z,27.17
2023-03-15T19:06:07.714Z,16.00
2023-03-15T19:11:13.338Z,10.10
2023-03-15T19:16:22.268Z,10.87
2023-03-15T19:21:27.622Z,11.67
2023-03-15T19:26:33.003Z,19.90
2023-03-15T19:31:39.105Z,9.23
2023-03-15T19:36:44.323Z,19.57
2023-03-15T19:41:50.842Z,15.50
2023-03-15T19:46:56.398Z,52.40
2023-03-15T19:52:03.434Z,57.83
2023-03-15T19:57:08.682Z,61.83
2023-03-15T20:02:14.886Z,52.00
2023-03-15T20:07:20.272Z,44.87
2023-03-15T20:12:26.098Z,43.20
2023-03-15T20:17:31.420Z,46.33
2023-03-15T20:22:37.530Z,55.37
2023-03-15T20:27:45.918Z,40.07
2023-03-15T20:32:52.601Z,40.63
2023-03-15T20:37:59.713Z,43.60
2023-03-15T20:43:05.987Z,40.77
2023-03-15T20:48:11.318Z,39.37
2023-03-15T20:53:18.061Z,49.13
2023-03-15T20:58:23.659Z,28.50
2023-03-15T21:03:31.239Z,32.37
2023-03-15T21:08:37.455Z,18.87
2023-03-15T21:13:42.771Z,23.90
2023-03-15T21:18:49.721Z,15.37
2023-03-15T21:23:56.505Z,11.27
2023-03-15T21:29:02.404Z,14.00
2023-03-15T21:34:07.775Z,13.80
2023-03-15T21:39:13.123Z,11.73
2023-03-15T21:44:18.610Z,9.63
2023-03-15T21:49:23.985Z,7.67
2023-03-15T21:54:29.634Z,8.50
2023-03-15T21:59:35.067Z,11.00
2023-03-15T22:04:42.122Z,5.77
2023-03-15T22:09:47.573Z,7.63
2023-03-15T22:15:04.727Z,7.13
2023-03-15T22:20:00.566Z,22.80
2023-03-15T22:25:07.296Z,29.77
2023-03-15T22:30:15.758Z,23.90
2023-03-15T22:35:21.240Z,20.40
2023-03-15T22:40:30.215Z,18.27
2023-03-15T22:45:35.563Z,22.77
2023-03-15T22:50:40.950Z,20.50
2023-03-15T22:55:46.351Z,20.33
2023-03-15T23:00:51.853Z,8.77
2023-03-15T23:05:58.278Z,5.77
2023-03-15T23:11:04.327Z,7.93
2023-03-15T23:16:10.131Z,14.33
2023-03-15T23:21:16.493Z,10.07
2023-03-15T23:26:23.461Z,9.07
2023-03-15T23:31:49.953Z,12.17
2023-03-15T23:36:55.509Z,7.03
2023-03-15T23:42:00.833Z,10.63
2023-03-15T23:47:06.675Z,6.37
2023-03-15T23:52:12.085Z,4.47
2023-03-15T23:57:17.920Z,6.17
